<?xml version='1.0' encoding='UTF-8'?><gpx version="1.1" creator="JPX - https://github.com/jenetics/jpx" xmlns="http://www.topografix.com/GPX/1/1"><trk><trkseg><trkpt lat="50.780820683680965" lon="15.750817567493486"><ele>639.0000000000001</ele><time>2026-04-05T07:09:41.017Z</time></trkpt><trkpt lat="50.78077284160825" lon="15.750748248805037"><ele>639.0</ele><time>2026-04-05T07:09:47.025Z</time></trkpt><trkpt lat="50.78071672007923" lon="15.750694969500932"><ele>639.0</ele><time>2026-04-05T07:10:12.018Z</time></trkpt><trkpt lat="50.78064944731709" lon="15.75071618972162"><ele>639.0</ele><time>2026-04-05T07:10:16.016Z</time></trkpt><trkpt lat="50.780579495411125" lon="15.750762347685896"><ele>639.0</ele><time>2026-04-05T07:10:23.016Z</time></trkpt><trkpt lat="50.780510580888425" lon="15.750784356524385"><ele>639.0000000000001</ele><time>2026-04-05T07:10:28.027Z</time></trkpt><trkpt lat="50.780437604513565" lon="15.750813788315519"><ele>639.0</ele><time>2026-04-05T07:10:34.026Z</time></trkpt><trkpt lat="50.7803652678775" lon="15.750845780816137"><ele>639.0000000000001</ele><time>2026-04-05T07:10:39.017Z</time></trkpt><trkpt lat="50.78029658859648" lon="15.750876155765107"><ele>639.0</ele><time>2026-04-05T07:10:44.017Z</time></trkpt><trkpt lat="50.78022129657501" lon="15.750907246389609"><ele>639.0</ele><time>2026-04-05T07:10:51.026Z</time></trkpt><trkpt lat="50.780152298338365" lon="15.750926956067813"><ele>639.0</ele><time>2026-04-05T07:10:56.999Z</time></trkpt><trkpt lat="50.780087552532095" lon="15.750946370587148"><ele>639.0</ele><time>2026-04-05T07:11:03.999Z</time></trkpt><trkpt lat="50.780046870534605" lon="15.75103248734595"><ele>639.0000000000001</ele><time>2026-04-05T07:11:07.999Z</time></trkpt><trkpt lat="50.77999376317589" lon="15.751120022143882"><ele>639.0</ele><time>2026-04-05T07:11:10.999Z</time></trkpt><trkpt lat="50.779945891403315" lon="15.75118613114574"><ele>639.8571428571429</ele><time>2026-04-05T07:11:13.999Z</time></trkpt><trkpt lat="50.77988548644499" lon="15.751224015664915"><ele>640.7142857142858</ele><time>2026-04-05T07:11:19.999Z</time></trkpt><trkpt lat="50.77981350740616" lon="15.751235679067152"><ele>641.5714285714287</ele><time>2026-04-05T07:11:23.999Z</time></trkpt><trkpt lat="50.779750647099696" lon="15.751274577657634"><ele>642.4285714285714</ele><time>2026-04-05T07:11:29.999Z</time></trkpt><trkpt lat="50.77968181574648" lon="15.751270839371738"><ele>643.2857142857142</ele><time>2026-04-05T07:11:34.999Z</time></trkpt><trkpt lat="50.77959224140956" lon="15.75127155156903"><ele>644.1428571428572</ele><time>2026-04-05T07:11:47.999Z</time></trkpt><trkpt lat="50.77952894897882" lon="15.751302545941687"><ele>645.0</ele><time>2026-04-05T07:11:53.999Z</time></trkpt><trkpt lat="50.779462921560125" lon="15.751302393355106"><ele>645.0</ele><time>2026-04-05T07:11:58.999Z</time></trkpt><trkpt lat="50.779403712836746" lon="15.751267680789788"><ele>645.0</ele><time>2026-04-05T07:12:03.999Z</time></trkpt><trkpt lat="50.77933416217722" lon="15.751245289912456"><ele>645.0</ele><time>2026-04-05T07:12:11.998Z</time></trkpt><trkpt lat="50.77927038059664" lon="15.751220667607676"><ele>645.0</ele><time>2026-04-05T07:12:18.998Z</time></trkpt><trkpt lat="50.77920814643971" lon="15.751203896810544"><ele>645.0</ele><time>2026-04-05T07:12:24.998Z</time></trkpt><trkpt lat="50.779145377283754" lon="15.751158614772752"><ele>645.0</ele><time>2026-04-05T07:12:31.998Z</time></trkpt><trkpt lat="50.779087342873495" lon="15.75111374243948"><ele>645.0</ele><time>2026-04-05T07:12:37.998Z</time></trkpt><trkpt lat="50.77901819613643" lon="15.75111084780743"><ele>647.0</ele><time>2026-04-05T07:12:44.998Z</time></trkpt><trkpt lat="50.77895802667108" lon="15.751181530261963"><ele>649.0</ele><time>2026-04-05T07:12:50.998Z</time></trkpt><trkpt lat="50.77889540766508" lon="15.751232761918015"><ele>651.0</ele><time>2026-04-05T07:12:55.998Z</time></trkpt><trkpt lat="50.778830865354465" lon="15.751262851559234"><ele>653.0</ele><time>2026-04-05T07:13:01Z</time></trkpt><trkpt lat="50.77876058874583" lon="15.75127556214179"><ele>655.0</ele><time>2026-04-05T07:13:08Z</time></trkpt><trkpt lat="50.77869420681069" lon="15.751285416701716"><ele>657.0</ele><time>2026-04-05T07:13:14Z</time></trkpt><trkpt lat="50.7786289769525" lon="15.751307650352574"><ele>659.0</ele><time>2026-04-05T07:13:20Z</time></trkpt><trkpt lat="50.7785637631963" lon="15.751339350949044"><ele>661.7142857142858</ele><time>2026-04-05T07:13:26Z</time></trkpt><trkpt lat="50.7785006653607" lon="15.751383002285685"><ele>664.4285714285713</ele><time>2026-04-05T07:13:30Z</time></trkpt><trkpt lat="50.778437999331295" lon="15.751439482535634"><ele>667.1428571428571</ele><time>2026-04-05T07:13:36.999Z</time></trkpt><trkpt lat="50.77837664685602" lon="15.751486398276803"><ele>669.8571428571429</ele><time>2026-04-05T07:13:42.999Z</time></trkpt><trkpt lat="50.7783035529008" lon="15.751523776449005"><ele>672.5714285714287</ele><time>2026-04-05T07:13:48.999Z</time></trkpt><trkpt lat="50.778239255946566" lon="15.751544680045058"><ele>675.2857142857142</ele><time>2026-04-05T07:13:54.999Z</time></trkpt><trkpt lat="50.778163163068996" lon="15.751564388248367"><ele>678.0</ele><time>2026-04-05T07:13:59.999Z</time></trkpt><trkpt lat="50.778095513439354" lon="15.75157117061913"><ele>678.0</ele><time>2026-04-05T07:14:03.999Z</time></trkpt><trkpt lat="50.778024361938485" lon="15.751576702742025"><ele>678.0</ele><time>2026-04-05T07:14:08.999Z</time></trkpt><trkpt lat="50.777956416459986" lon="15.751605437292552"><ele>678.0</ele><time>2026-04-05T07:14:15.999Z</time></trkpt><trkpt lat="50.777890679617784" lon="15.751615239587553"><ele>678.0</ele><time>2026-04-05T07:14:20.999Z</time></trkpt><trkpt lat="50.777820443798284" lon="15.75161532758823"><ele>678.0</ele><time>2026-04-05T07:14:27.998Z</time></trkpt><trkpt lat="50.77775706096812" lon="15.751629317733634"><ele>678.0</ele><time>2026-04-05T07:14:31.998Z</time></trkpt><trkpt lat="50.77767834212515" lon="15.75162737481981"><ele>678.0</ele><time>2026-04-05T07:14:37.998Z</time></trkpt><trkpt lat="50.77760174588389" lon="15.751646177331477"><ele>680.1428571428571</ele><time>2026-04-05T07:14:42.998Z</time></trkpt><trkpt lat="50.77753517108454" lon="15.751653847646038"><ele>682.2857142857143</ele><time>2026-04-05T07:14:47.998Z</time></trkpt><trkpt lat="50.777464255498806" lon="15.751658176674928"><ele>684.4285714285714</ele><time>2026-04-05T07:14:53.998Z</time></trkpt><trkpt lat="50.77740016433742" lon="15.751661392444475"><ele>686.5714285714286</ele><time>2026-04-05T07:14:57.998Z</time></trkpt><trkpt lat="50.77732692834047" lon="15.751649995682076"><ele>688.7142857142858</ele><time>2026-04-05T07:15:04.998Z</time></trkpt><trkpt lat="50.77726262202442" lon="15.751650714775753"><ele>690.8571428571429</ele><time>2026-04-05T07:15:09Z</time></trkpt><trkpt lat="50.77719736898916" lon="15.751650760126875"><ele>693.0</ele><time>2026-04-05T07:15:15Z</time></trkpt><trkpt lat="50.77712766428103" lon="15.751656178881445"><ele>693.0</ele><time>2026-04-05T07:15:20Z</time></trkpt><trkpt lat="50.77705360836784" lon="15.751654577097355"><ele>693.0</ele><time>2026-04-05T07:15:26Z</time></trkpt><trkpt lat="50.77697949815994" lon="15.751636932042437"><ele>693.0</ele><time>2026-04-05T07:15:31Z</time></trkpt><trkpt lat="50.77690637848335" lon="15.7516013693835"><ele>693.0</ele><time>2026-04-05T07:15:36Z</time></trkpt><trkpt lat="50.77683797840128" lon="15.751539813963557"><ele>693.0</ele><time>2026-04-05T07:15:40.999Z</time></trkpt><trkpt lat="50.77677658909604" lon="15.751470505581851"><ele>693.0</ele><time>2026-04-05T07:15:45.999Z</time></trkpt><trkpt lat="50.77672433017298" lon="15.75141201705882"><ele>693.0</ele><time>2026-04-05T07:15:49.999Z</time></trkpt><trkpt lat="50.77666935812436" lon="15.751344351067722"><ele>693.8571428571429</ele><time>2026-04-05T07:15:54.999Z</time></trkpt><trkpt lat="50.77661346644465" lon="15.75126804803813"><ele>694.7142857142858</ele><time>2026-04-05T07:15:59.999Z</time></trkpt><trkpt lat="50.7765643292593" lon="15.751189550562813"><ele>695.5714285714286</ele><time>2026-04-05T07:16:06.999Z</time></trkpt><trkpt lat="50.77651418666762" lon="15.751115296891868"><ele>696.4285714285714</ele><time>2026-04-05T07:16:11.999Z</time></trkpt><trkpt lat="50.776474113169414" lon="15.751033180703184"><ele>697.2857142857143</ele><time>2026-04-05T07:16:16.999Z</time></trkpt><trkpt lat="50.77642522186026" lon="15.750957359518289"><ele>698.1428571428571</ele><time>2026-04-05T07:16:21.999Z</time></trkpt><trkpt lat="50.776384132556224" lon="15.75087808422011"><ele>699.0</ele><time>2026-04-05T07:16:28.999Z</time></trkpt><trkpt lat="50.776345645857404" lon="15.750787628478438"><ele>699.0</ele><time>2026-04-05T07:16:34.998Z</time></trkpt><trkpt lat="50.77631538971862" lon="15.75069830324441"><ele>699.0</ele><time>2026-04-05T07:16:40.998Z</time></trkpt><trkpt lat="50.77628980803864" lon="15.750596336115738"><ele>699.0</ele><time>2026-04-05T07:16:45.998Z</time></trkpt><trkpt lat="50.77627372137037" lon="15.750491680015536"><ele>699.0</ele><time>2026-04-05T07:16:50.998Z</time></trkpt><trkpt lat="50.776265608015294" lon="15.750373867623885"><ele>699.0</ele><time>2026-04-05T07:16:55.998Z</time></trkpt><trkpt lat="50.7762651715719" lon="15.750268777361816"><ele>699.0</ele><time>2026-04-05T07:17:00.998Z</time></trkpt><trkpt lat="50.77626977487386" lon="15.750161343935858"><ele>699.0</ele><time>2026-04-05T07:17:05.998Z</time></trkpt><trkpt lat="50.77628295634514" lon="15.75004620368917"><ele>699.5714285714286</ele><time>2026-04-05T07:17:10.998Z</time></trkpt><trkpt lat="50.77628442360942" lon="15.749934235626638"><ele>700.1428571428572</ele><time>2026-04-05T07:17:16Z</time></trkpt><trkpt lat="50.77628097262011" lon="15.749834082589821"><ele>700.7142857142858</ele><time>2026-04-05T07:17:21Z</time></trkpt><trkpt lat="50.776269706231574" lon="15.749722986137677"><ele>701.2857142857142</ele><time>2026-04-05T07:17:31Z</time></trkpt><trkpt lat="50.77630098590224" lon="15.749625692244274"><ele>701.8571428571429</ele><time>2026-04-05T07:17:48Z</time></trkpt><trkpt lat="50.77636394727607" lon="15.749530702881824"><ele>702.4285714285714</ele><time>2026-04-05T07:18:02.999Z</time></trkpt><trkpt lat="50.77642389384744" lon="15.749468526204053"><ele>703.0</ele><time>2026-04-05T07:18:10.999Z</time></trkpt><trkpt lat="50.77649671697084" lon="15.749411153589694"><ele>703.0</ele><time>2026-04-05T07:18:20.999Z</time></trkpt><trkpt lat="50.776540480542565" lon="15.749510150180116"><ele>703.0</ele><time>2026-04-05T07:18:53.998Z</time></trkpt><trkpt lat="50.776551686428256" lon="15.749624742925679"><ele>703.0</ele><time>2026-04-05T07:18:59.998Z</time></trkpt><trkpt lat="50.77656336077598" lon="15.749729950001992"><ele>703.0</ele><time>2026-04-05T07:19:06.998Z</time></trkpt><trkpt lat="50.776577610436235" lon="15.749832817994927"><ele>703.0</ele><time>2026-04-05T07:19:11.998Z</time></trkpt><trkpt lat="50.77660126012525" lon="15.74993417658936"><ele>703.0</ele><time>2026-04-05T07:19:19Z</time></trkpt><trkpt lat="50.776666813443484" lon="15.750001329206677"><ele>703.0</ele><time>2026-04-05T07:19:31Z</time></trkpt><trkpt lat="50.7767198350819" lon="15.749939979261027"><ele>703.0</ele><time>2026-04-05T07:19:45Z</time></trkpt><trkpt lat="50.77674996186582" lon="15.749851982088824"><ele>703.0</ele><time>2026-04-05T07:19:55Z</time></trkpt><trkpt lat="50.77678795589234" lon="15.749753105604537"><ele>703.0</ele><time>2026-04-05T07:20:00.999Z</time></trkpt><trkpt lat="50.77682298076404" lon="15.749660160757868"><ele>703.0</ele><time>2026-04-05T07:20:09.999Z</time></trkpt><trkpt lat="50.77686337663048" lon="15.74955698299315"><ele>703.0</ele><time>2026-04-05T07:20:17.999Z</time></trkpt><trkpt lat="50.77690644841338" lon="15.7494707957374"><ele>703.0</ele><time>2026-04-05T07:20:25.999Z</time></trkpt><trkpt lat="50.77696431457629" lon="15.749397779982093"><ele>703.0</ele><time>2026-04-05T07:20:32.999Z</time></trkpt><trkpt lat="50.77701822283597" lon="15.749344563856493"><ele>706.5714285714286</ele><time>2026-04-05T07:20:39.999Z</time></trkpt><trkpt lat="50.777083042142856" lon="15.749325730395842"><ele>710.1428571428571</ele><time>2026-04-05T07:20:44.999Z</time></trkpt><trkpt lat="50.777127569353425" lon="15.749396230279567"><ele>713.7142857142858</ele><time>2026-04-05T07:20:57.998Z</time></trkpt><trkpt lat="50.77717327577378" lon="15.749491989865568"><ele>717.2857142857142</ele><time>2026-04-05T07:21:03.998Z</time></trkpt><trkpt lat="50.77721869545" lon="15.749579340061374"><ele>720.8571428571429</ele><time>2026-04-05T07:21:11.998Z</time></trkpt><trkpt lat="50.77727992641959" lon="15.749617911393223"><ele>724.4285714285714</ele><time>2026-04-05T07:21:24Z</time></trkpt><trkpt lat="50.77733510540811" lon="15.749563698504627"><ele>728.0</ele><time>2026-04-05T07:21:29Z</time></trkpt><trkpt lat="50.77738205960107" lon="15.749476673556384"><ele>728.0</ele><time>2026-04-05T07:21:36Z</time></trkpt><trkpt lat="50.77741772895647" lon="15.749390136007134"><ele>728.0</ele><time>2026-04-05T07:21:47Z</time></trkpt><trkpt lat="50.7774237591648" lon="15.74927848942865"><ele>728.0</ele><time>2026-04-05T07:23:04.998Z</time></trkpt><trkpt lat="50.77747169328172" lon="15.749180545860797"><ele>728.0</ele><time>2026-04-05T07:23:10.998Z</time></trkpt><trkpt lat="50.77749773902241" lon="15.749070459744912"><ele>728.0</ele><time>2026-04-05T07:23:56Z</time></trkpt><trkpt lat="50.777540760259896" lon="15.74896936412222"><ele>728.0</ele><time>2026-04-05T07:24:22.999Z</time></trkpt><trkpt lat="50.777568371011796" lon="15.748863405283931"><ele>728.0</ele><time>2026-04-05T07:24:29.999Z</time></trkpt><trkpt lat="50.777611377581465" lon="15.748775658484734"><ele>728.1428571428571</ele><time>2026-04-05T07:24:44.999Z</time></trkpt><trkpt lat="50.777630763670736" lon="15.748664933563733"><ele>728.2857142857142</ele><time>2026-04-05T07:24:53.999Z</time></trkpt><trkpt lat="50.7776351394303" lon="15.748562824504097"><ele>728.4285714285714</ele><time>2026-04-05T07:25:01.998Z</time></trkpt><trkpt lat="50.777687632879775" lon="15.748502420922293"><ele>728.5714285714286</ele><time>2026-04-05T07:25:06.998Z</time></trkpt><trkpt lat="50.777737824619216" lon="15.748395418453168"><ele>728.7142857142857</ele><time>2026-04-05T07:25:32.998Z</time></trkpt><trkpt lat="50.777773897261326" lon="15.748309735270851"><ele>728.8571428571429</ele><time>2026-04-05T07:25:51Z</time></trkpt><trkpt lat="50.77781863431226" lon="15.748205901029925"><ele>729.0</ele><time>2026-04-05T07:26:07Z</time></trkpt><trkpt lat="50.77785691984976" lon="15.748115119436733"><ele>728.7142857142858</ele><time>2026-04-05T07:26:22.999Z</time></trkpt><trkpt lat="50.777848504836804" lon="15.74801592363386"><ele>728.4285714285713</ele><time>2026-04-05T07:27:23.998Z</time></trkpt><trkpt lat="50.777856898959506" lon="15.747916022346114"><ele>728.1428571428571</ele><time>2026-04-05T07:27:32.998Z</time></trkpt><trkpt lat="50.77791281676411" lon="15.747849068757189"><ele>727.8571428571429</ele><time>2026-04-05T07:30:07.999Z</time></trkpt><trkpt lat="50.777984171721606" lon="15.747850905739297"><ele>727.5714285714287</ele><time>2026-04-05T07:30:40.999Z</time></trkpt><trkpt lat="50.77804598231475" lon="15.747825008561135"><ele>727.2857142857142</ele><time>2026-04-05T07:31:00.998Z</time></trkpt><trkpt lat="50.778081617793006" lon="15.747731809645558"><ele>727.0</ele><time>2026-04-05T07:31:06.998Z</time></trkpt><trkpt lat="50.77811916150384" lon="15.747627664184284"><ele>726.4285714285714</ele><time>2026-04-05T07:31:13.998Z</time></trkpt><trkpt lat="50.77815961341329" lon="15.747545784450335"><ele>725.8571428571429</ele><time>2026-04-05T07:31:19.998Z</time></trkpt><trkpt lat="50.77820496404222" lon="15.747430918340688"><ele>725.2857142857143</ele><time>2026-04-05T07:31:25.998Z</time></trkpt><trkpt lat="50.77824038647865" lon="15.747331288393363"><ele>724.7142857142858</ele><time>2026-04-05T07:31:31.998Z</time></trkpt><trkpt lat="50.77827601939208" lon="15.747230155729122"><ele>724.1428571428571</ele><time>2026-04-05T07:31:36.998Z</time></trkpt><trkpt lat="50.778317442688305" lon="15.747139051910393"><ele>723.5714285714287</ele><time>2026-04-05T07:31:42.998Z</time></trkpt><trkpt lat="50.778358401071316" lon="15.747046406370153"><ele>723.0</ele><time>2026-04-05T07:31:48.998Z</time></trkpt><trkpt lat="50.77840243309333" lon="15.746965402079713"><ele>723.0000000000001</ele><time>2026-04-05T07:31:54Z</time></trkpt><trkpt lat="50.77844692464574" lon="15.746882782764335"><ele>723.0</ele><time>2026-04-05T07:31:59Z</time></trkpt><trkpt lat="50.778496319900555" lon="15.74679204914114"><ele>723.0</ele><time>2026-04-05T07:32:05Z</time></trkpt><trkpt lat="50.778541745867706" lon="15.746707665084612"><ele>723.0</ele><time>2026-04-05T07:32:11Z</time></trkpt><trkpt lat="50.778586393087856" lon="15.74662359012068"><ele>723.0</ele><time>2026-04-05T07:32:16Z</time></trkpt><trkpt lat="50.778641570405206" lon="15.746558215373073"><ele>723.0000000000001</ele><time>2026-04-05T07:32:24Z</time></trkpt><trkpt lat="50.7787108194548" lon="15.746637754468171"><ele>723.0</ele><time>2026-04-05T07:32:29Z</time></trkpt><trkpt lat="50.77875221282321" lon="15.746719625252512"><ele>721.4285714285714</ele><time>2026-04-05T07:32:30.999Z</time></trkpt><trkpt lat="50.77881244596865" lon="15.74677010002586"><ele>719.8571428571429</ele><time>2026-04-05T07:32:35.999Z</time></trkpt><trkpt lat="50.77886568493451" lon="15.746830036729115"><ele>718.2857142857142</ele><time>2026-04-05T07:32:40.999Z</time></trkpt><trkpt lat="50.77892920716574" lon="15.746901781577389"><ele>716.7142857142858</ele><time>2026-04-05T07:32:46.999Z</time></trkpt><trkpt lat="50.77898905715143" lon="15.746964289932068"><ele>715.1428571428571</ele><time>2026-04-05T07:32:56.999Z</time></trkpt><trkpt lat="50.77904863308471" lon="15.747008899039368"><ele>713.5714285714286</ele><time>2026-04-05T07:33:02.999Z</time></trkpt><trkpt lat="50.77911506038414" lon="15.747058244571207"><ele>712.0</ele><time>2026-04-05T07:33:08.999Z</time></trkpt><trkpt lat="50.7791777907628" lon="15.747102173442427"><ele>711.4285714285713</ele><time>2026-04-05T07:33:14.999Z</time></trkpt><trkpt lat="50.779244694980626" lon="15.747133436946688"><ele>710.8571428571429</ele><time>2026-04-05T07:33:20.999Z</time></trkpt><trkpt lat="50.77931149568947" lon="15.747179409602744"><ele>710.2857142857142</ele><time>2026-04-05T07:33:27.998Z</time></trkpt><trkpt lat="50.7793712995982" lon="15.747231505851678"><ele>709.7142857142857</ele><time>2026-04-05T07:33:34.998Z</time></trkpt><trkpt lat="50.779433798509615" lon="15.747267601226508"><ele>709.1428571428571</ele><time>2026-04-05T07:33:41.998Z</time></trkpt><trkpt lat="50.77949298156395" lon="15.747302339219345"><ele>708.5714285714286</ele><time>2026-04-05T07:33:47.998Z</time></trkpt><trkpt lat="50.77955890137894" lon="15.747340659047037"><ele>708.0</ele><time>2026-04-05T07:33:52.998Z</time></trkpt><trkpt lat="50.77962223450194" lon="15.747374257112334"><ele>703.7142857142858</ele><time>2026-04-05T07:33:57.998Z</time></trkpt><trkpt lat="50.779684748964044" lon="15.747409580291501"><ele>699.4285714285713</ele><time>2026-04-05T07:34:03Z</time></trkpt><trkpt lat="50.77974713875315" lon="15.747451941279099"><ele>695.1428571428571</ele><time>2026-04-05T07:34:09Z</time></trkpt><trkpt lat="50.77980801920534" lon="15.747498621746141"><ele>690.8571428571429</ele><time>2026-04-05T07:34:22Z</time></trkpt><trkpt lat="50.77986818464042" lon="15.747549313338538"><ele>686.5714285714287</ele><time>2026-04-05T07:34:33Z</time></trkpt><trkpt lat="50.779928722790594" lon="15.747594641849258"><ele>682.2857142857142</ele><time>2026-04-05T07:34:40Z</time></trkpt><trkpt lat="50.77998592937767" lon="15.747637583182525"><ele>678.0</ele><time>2026-04-05T07:34:45Z</time></trkpt><trkpt lat="50.78005119038599" lon="15.747686616756015"><ele>677.7142857142857</ele><time>2026-04-05T07:34:50.999Z</time></trkpt><trkpt lat="50.7801089908663" lon="15.747730063789746"><ele>677.4285714285714</ele><time>2026-04-05T07:34:57.999Z</time></trkpt><trkpt lat="50.780168710360066" lon="15.747773063255885"><ele>677.1428571428571</ele><time>2026-04-05T07:35:03.999Z</time></trkpt><trkpt lat="50.780225942834285" lon="15.747818020734643"><ele>676.8571428571429</ele><time>2026-04-05T07:35:12.999Z</time></trkpt><trkpt lat="50.78028556507093" lon="15.747862865359854"><ele>676.5714285714286</ele><time>2026-04-05T07:35:19.999Z</time></trkpt><trkpt lat="50.780345279175705" lon="15.74790780535652"><ele>676.2857142857143</ele><time>2026-04-05T07:35:24.999Z</time></trkpt><trkpt lat="50.780407067792744" lon="15.74795431574478"><ele>676.0</ele><time>2026-04-05T07:35:29.999Z</time></trkpt><trkpt lat="50.780473617727225" lon="15.747988701064779"><ele>673.5714285714286</ele><time>2026-04-05T07:35:34.999Z</time></trkpt><trkpt lat="50.780532454656374" lon="15.7480485847318"><ele>671.1428571428571</ele><time>2026-04-05T07:35:39.999Z</time></trkpt><trkpt lat="50.780598788618974" lon="15.748098261950904"><ele>668.7142857142858</ele><time>2026-04-05T07:35:45.998Z</time></trkpt><trkpt lat="50.78065875779589" lon="15.74812933667024"><ele>666.2857142857142</ele><time>2026-04-05T07:35:50.998Z</time></trkpt><trkpt lat="50.78071418839362" lon="15.748185593321898"><ele>663.8571428571428</ele><time>2026-04-05T07:35:55.998Z</time></trkpt><trkpt lat="50.78077740929768" lon="15.748226950177253"><ele>661.4285714285714</ele><time>2026-04-05T07:36:00.998Z</time></trkpt><trkpt lat="50.78084167994769" lon="15.74826607649077"><ele>659.0</ele><time>2026-04-05T07:36:06.001Z</time></trkpt><trkpt lat="50.7808999051902" lon="15.748316624133322"><ele>659.0</ele><time>2026-04-05T07:36:11.001Z</time></trkpt><trkpt lat="50.78095753745265" lon="15.748357024430112"><ele>659.0</ele><time>2026-04-05T07:36:17.001Z</time></trkpt><trkpt lat="50.78101529985813" lon="15.748396748963785"><ele>659.0</ele><time>2026-04-05T07:36:24Z</time></trkpt><trkpt lat="50.781076798472924" lon="15.748434502744217"><ele>659.0</ele><time>2026-04-05T07:36:33Z</time></trkpt><trkpt lat="50.78113795031532" lon="15.748472038821856"><ele>659.0</ele><time>2026-04-05T07:36:39Z</time></trkpt><trkpt lat="50.781205419449094" lon="15.74851384837266"><ele>659.0</ele><time>2026-04-05T07:36:45Z</time></trkpt><trkpt lat="50.7812760000522" lon="15.748546430400703"><ele>659.0</ele><time>2026-04-05T07:36:51Z</time></trkpt><trkpt lat="50.781347079713605" lon="15.748577371689954"><ele>654.8571428571429</ele><time>2026-04-05T07:36:56.999Z</time></trkpt><trkpt lat="50.781413028871945" lon="15.748606083169367"><ele>650.7142857142857</ele><time>2026-04-05T07:37:02.999Z</time></trkpt><trkpt lat="50.78147667688775" lon="15.748620828995326"><ele>646.5714285714286</ele><time>2026-04-05T07:37:07.999Z</time></trkpt><trkpt lat="50.78155069817178" lon="15.748622864315756"><ele>642.4285714285714</ele><time>2026-04-05T07:37:13.999Z</time></trkpt><trkpt lat="50.781615495442125" lon="15.748693632999412"><ele>638.2857142857142</ele><time>2026-04-05T07:37:19.999Z</time></trkpt><trkpt lat="50.781658284178675" lon="15.748803791893764"><ele>634.1428571428571</ele><time>2026-04-05T07:37:23.999Z</time></trkpt><trkpt lat="50.78167453719593" lon="15.74891275455497"><ele>630.0</ele><time>2026-04-05T07:37:27.999Z</time></trkpt><trkpt lat="50.78168947542624" lon="15.749016189195236"><ele>630.0</ele><time>2026-04-05T07:37:32.999Z</time></trkpt><trkpt lat="50.78170612009966" lon="15.749129690392031"><ele>630.0</ele><time>2026-04-05T07:37:37.999Z</time></trkpt><trkpt lat="50.78172214735562" lon="15.749231649515842"><ele>630.0</ele><time>2026-04-05T07:37:42.999Z</time></trkpt><trkpt lat="50.78176867506693" lon="15.74931340151038"><ele>630.0</ele><time>2026-04-05T07:37:48.998Z</time></trkpt><trkpt lat="50.78180444247152" lon="15.749226885673519"><ele>630.0</ele><time>2026-04-05T07:37:53.998Z</time></trkpt><trkpt lat="50.781781930247924" lon="15.749116180503902"><ele>630.0</ele><time>2026-04-05T07:37:59.998Z</time></trkpt><trkpt lat="50.78180740454845" lon="15.749207235789166"><ele>630.0</ele><time>2026-04-05T07:38:54Z</time></trkpt><trkpt lat="50.78178921857957" lon="15.74930359529064"><ele>629.4285714285714</ele><time>2026-04-05T07:39:04.999Z</time></trkpt><trkpt lat="50.78180752410494" lon="15.749410140599647"><ele>628.8571428571429</ele><time>2026-04-05T07:39:09.999Z</time></trkpt><trkpt lat="50.781833395191256" lon="15.749510915845713"><ele>628.2857142857142</ele><time>2026-04-05T07:39:14.999Z</time></trkpt><trkpt lat="50.78185272929646" lon="15.74961550272529"><ele>627.7142857142858</ele><time>2026-04-05T07:39:19.999Z</time></trkpt><trkpt lat="50.781884073335476" lon="15.749713562899142"><ele>627.1428571428571</ele><time>2026-04-05T07:39:24.999Z</time></trkpt><trkpt lat="50.781909205254365" lon="15.749822220858489"><ele>626.5714285714286</ele><time>2026-04-05T07:39:33.999Z</time></trkpt><trkpt lat="50.781937224611525" lon="15.749930969025375"><ele>626.0</ele><time>2026-04-05T07:39:38.999Z</time></trkpt><trkpt lat="50.781967956601825" lon="15.75003312222171"><ele>625.0</ele><time>2026-04-05T07:39:43.998Z</time></trkpt><trkpt lat="50.78198954813512" lon="15.750127373984562"><ele>624.0</ele><time>2026-04-05T07:39:47.998Z</time></trkpt><trkpt lat="50.7819934325366" lon="15.750233862832753"><ele>623.0</ele><time>2026-04-05T07:39:52.998Z</time></trkpt><trkpt lat="50.78200439195208" lon="15.750349976009161"><ele>622.0</ele><time>2026-04-05T07:39:57.998Z</time></trkpt><trkpt lat="50.78202129049088" lon="15.750452431507187"><ele>621.0</ele><time>2026-04-05T07:40:01.998Z</time></trkpt><trkpt lat="50.78200036396349" lon="15.750568428828018"><ele>620.0</ele><time>2026-04-05T07:40:07.998Z</time></trkpt><trkpt lat="50.782003861731326" lon="15.750674705986759"><ele>619.0</ele><time>2026-04-05T07:40:12.998Z</time></trkpt><trkpt lat="50.78201513617636" lon="15.750795576893411"><ele>618.7142857142857</ele><time>2026-04-05T07:40:22Z</time></trkpt><trkpt lat="50.78198777724626" lon="15.750889307233797"><ele>618.4285714285714</ele><time>2026-04-05T07:40:27Z</time></trkpt><trkpt lat="50.78192252331378" lon="15.750880089834125"><ele>618.1428571428571</ele><time>2026-04-05T07:40:36Z</time></trkpt><trkpt lat="50.78185020905138" lon="15.750831994011943"><ele>617.8571428571429</ele><time>2026-04-05T07:40:39Z</time></trkpt><trkpt lat="50.781790924307806" lon="15.750774586789534"><ele>617.5714285714286</ele><time>2026-04-05T07:40:45Z</time></trkpt><trkpt lat="50.78173238650287" lon="15.750735940913405"><ele>617.2857142857143</ele><time>2026-04-05T07:40:50Z</time></trkpt><trkpt lat="50.78167020051822" lon="15.750679550389178"><ele>617.0</ele><time>2026-04-05T07:40:55.999Z</time></trkpt><trkpt lat="50.781603504691695" lon="15.750641843417675"><ele>617.8571428571429</ele><time>2026-04-05T07:41:01.999Z</time></trkpt><trkpt lat="50.78154585694899" lon="15.750596898227712"><ele>618.7142857142857</ele><time>2026-04-05T07:41:06.999Z</time></trkpt><trkpt lat="50.78148083750943" lon="15.750543575196971"><ele>619.5714285714286</ele><time>2026-04-05T07:41:12.999Z</time></trkpt><trkpt lat="50.78141439824905" lon="15.75049490334357"><ele>620.4285714285714</ele><time>2026-04-05T07:41:17.999Z</time></trkpt><trkpt lat="50.78134905561169" lon="15.750493648015386"><ele>621.2857142857142</ele><time>2026-04-05T07:41:29.999Z</time></trkpt><trkpt lat="50.78128583378214" lon="15.750447988745277"><ele>622.1428571428571</ele><time>2026-04-05T07:41:33.999Z</time></trkpt><trkpt lat="50.781216337097455" lon="15.750439849640866"><ele>623.0</ele><time>2026-04-05T07:41:36.999Z</time></trkpt><trkpt lat="50.78115711580664" lon="15.75048177114316"><ele>623.0</ele><time>2026-04-05T07:41:41.998Z</time></trkpt><trkpt lat="50.781094629315284" lon="15.750541107297254"><ele>623.0</ele><time>2026-04-05T07:41:47.998Z</time></trkpt><trkpt lat="50.78103300486665" lon="15.750579468468137"><ele>623.0</ele><time>2026-04-05T07:41:53.998Z</time></trkpt><trkpt lat="50.78096165863301" lon="15.75060215494197"><ele>623.0</ele><time>2026-04-05T07:41:59.998Z</time></trkpt><trkpt lat="50.78091881574004" lon="15.75069536233523"><ele>623.0</ele><time>2026-04-05T07:42:05.998Z</time></trkpt><trkpt lat="50.780974174402644" lon="15.750747187546333"><ele>623.0</ele><time>2026-04-05T07:42:10.998Z</time></trkpt><trkpt lat="50.78090778886425" lon="15.750777319254697"><ele>623.0</ele><time>2026-04-05T07:42:37Z</time></trkpt><trkpt lat="50.780841780171805" lon="15.75081802691697"><ele>626.1999999999999</ele><time>2026-04-05T07:42:43Z</time></trkpt><trkpt lat="50.780842161681846" lon="15.751002553270457"><ele>629.4</ele><time>2026-04-05T07:42:55Z</time></trkpt><trkpt lat="50.780860350596804" lon="15.750850133521237"><ele>632.5999999999999</ele><time>2026-04-05T07:43:06.999Z</time></trkpt><trkpt lat="50.78096030509583" lon="15.750826683651093"><ele>635.8</ele><time>2026-04-05T07:43:47.998Z</time></trkpt><trkpt lat="50.78095040097257" lon="15.750934894586292"><ele>639.0</ele><time>2026-04-05T07:45:09.999Z</time></trkpt><trkpt lat="50.78100660558077" lon="15.750868669044076"><ele>639.0</ele><time>2026-04-05T07:45:15.999Z</time></trkpt><trkpt lat="50.781068245118526" lon="15.751027291061712"><ele>623.0</ele><time>2026-04-05T07:45:46.999Z</time></trkpt><trkpt lat="50.780976459490326" lon="15.75093842672341"><ele>639.0</ele><time>2026-04-05T07:45:55.998Z</time></trkpt></trkseg></trk></gpx>